Time;durP1;ratioP1;P1;durP2;ratioP2;P2;SDS_P1;SDS_P2;PMS_P1;PMS_P2;Temp;Humidity;BMP_temperature;BMP_pressure;BME280_temperature;BME280_humidity;BME280_pressure;Samples;Min_cycle;Max_cycle;Signal;HPM_P1;HPM_P2
2024/04/02 00:02:15;;;;;;;13.15;7.63;;;;;;;9.38;100.00;99745.91;6185235;28;20424;-76
2024/04/02 00:05:15;;;;;;;12.98;8.25;;;;;;;9.37;100.00;99738.97;6178233;28;20039;-77
2024/04/02 00:08:17;;;;;;;14.60;8.10;;;;;;;9.35;100.00;99738.22;6177206;28;20070;-77
2024/04/02 00:11:17;;;;;;;14.98;7.80;;;;;;;9.37;100.00;99736.34;6184970;28;20046;-77
2024/04/02 00:14:20;;;;;;;13.50;7.03;;;;;;;9.37;100.00;99739.81;6184864;28;20072;-77
2024/04/02 00:17:21;;;;;;;11.52;7.20;;;;;;;9.36;100.00;99737.31;6177534;28;20058;-76
2024/04/02 00:20:22;;;;;;;20.23;8.15;;;;;;;9.28;100.00;99737.78;6182475;28;20050;-78
2024/04/02 00:23:23;;;;;;;15.07;8.18;;;;;;;9.28;100.00;99743.03;6192543;28;20050;-77
2024/04/02 00:26:24;;;;;;;17.88;8.27;;;;;;;9.27;100.00;99737.91;6178181;28;20046;-77
2024/04/02 00:29:26;;;;;;;16.60;8.82;;;;;;;9.24;100.00;99736.31;6181262;28;20043;-77
2024/04/02 00:32:27;;;;;;;15.18;8.32;;;;;;;9.22;100.00;99745.19;6177099;28;20058;-77
2024/04/02 00:35:28;;;;;;;13.32;7.28;;;;;;;9.19;100.00;99743.63;6179159;28;20070;-77
2024/04/02 00:38:29;;;;;;;16.88;8.48;;;;;;;9.17;100.00;99747.25;6176927;28;20051;-77
2024/04/02 00:41:30;;;;;;;15.30;7.47;;;;;;;9.20;100.00;99742.66;6186661;28;20053;-77
2024/04/02 00:44:33;;;;;;;16.65;9.15;;;;;;;9.12;100.00;99750.19;6185093;28;20054;-76
2024/04/02 00:47:35;;;;;;;13.90;7.78;;;;;;;9.09;100.00;99747.78;6185199;28;20479;-78
2024/04/02 00:50:36;;;;;;;16.30;8.65;;;;;;;9.08;100.00;99744.31;6177399;28;20050;-77
2024/04/02 00:53:38;;;;;;;13.38;8.35;;;;;;;9.05;100.00;99752.34;6184506;28;20129;-78
2024/04/02 00:56:39;;;;;;;15.45;7.93;;;;;;;9.04;100.00;99753.31;6176249;28;20159;-78
2024/04/02 00:59:41;;;;;;;15.20;7.68;;;;;;;9.00;100.00;99762.28;6184758;28;20074;-77
2024/04/02 01:02:43;;;;;;;13.35;8.10;;;;;;;8.98;100.00;99769.38;6184827;28;20070;-77
2024/04/02 01:05:44;;;;;;;11.68;6.78;;;;;;;8.98;100.00;99776.41;6177847;28;20074;-78
2024/04/02 01:08:46;;;;;;;12.45;6.90;;;;;;;9.00;100.00;99775.41;6184668;28;20046;-77
2024/04/02 01:11:49;;;;;;;12.25;6.45;;;;;;;8.98;100.00;99769.38;6187235;28;20097;-78
2024/04/02 01:14:51;;;;;;;12.38;6.55;;;;;;;8.98;100.00;99779.03;6184903;28;20043;-78
2024/04/02 01:17:53;;;;;;;11.10;6.22;;;;;;;9.02;100.00;99775.28;6180759;28;20355;-79
2024/04/02 01:20:54;;;;;;;14.43;6.75;;;;;;;9.01;100.00;99769.22;6180572;28;20061;-78
2024/04/02 01:23:55;;;;;;;10.15;6.20;;;;;;;9.03;100.00;99775.19;6184493;28;20042;-77
2024/04/02 01:26:58;;;;;;;13.27;7.18;;;;;;;9.02;100.00;99772.66;6187279;28;20042;-77
2024/04/02 01:29:59;;;;;;;13.88;7.97;;;;;;;8.99;100.00;99781.53;6189955;28;20148;-77
2024/04/02 01:32:59;;;;;;;11.93;6.65;;;;;;;9.02;100.00;99781.38;6188571;28;20050;-76
2024/04/02 01:36:01;;;;;;;11.07;7.05;;;;;;;8.97;100.00;99787.84;6192063;28;20046;-77
2024/04/02 01:39:02;;;;;;;12.93;6.82;;;;;;;9.00;100.00;99782.41;6181074;28;20359;-77
2024/04/02 01:42:04;;;;;;;16.95;6.80;;;;;;;9.02;100.00;99780.53;6185365;28;20054;-77
2024/04/02 01:45:06;;;;;;;12.00;6.90;;;;;;;8.99;100.00;99784.16;6184780;28;20050;-79
2024/04/02 01:48:07;;;;;;;11.45;6.28;;;;;;;9.01;100.00;99787.56;6187325;28;20050;-79
2024/04/02 01:51:08;;;;;;;17.63;7.28;;;;;;;8.96;100.00;99789.63;6194683;28;20049;-77
2024/04/02 01:54:08;;;;;;;11.65;5.78;;;;;;;8.96;100.00;99786.16;6188624;28;20050;-76
2024/04/02 01:57:11;;;;;;;12.65;6.30;;;;;;;8.91;100.00;99777.75;6179765;28;20043;-77
2024/04/02 02:00:14;;;;;;;12.23;5.97;;;;;;;8.87;100.00;99777.94;6187754;28;20047;-78
2024/04/02 02:03:14;;;;;;;16.10;5.97;;;;;;;8.88;100.00;99787.47;6194443;28;20112;-78
2024/04/02 02:06:15;;;;;;;8.68;5.55;;;;;;;8.85;100.00;99790.25;6189072;28;20043;-77
2024/04/02 02:09:16;;;;;;;11.18;5.30;;;;;;;8.84;100.00;99788.59;6179700;28;20369;-77
2024/04/02 02:12:19;;;;;;;11.25;5.10;;;;;;;8.86;100.00;99791.13;6186028;28;20050;-78
2024/04/02 02:15:19;;;;;;;11.18;5.03;;;;;;;8.87;100.00;99795.44;6189179;28;20043;-78
2024/04/02 02:18:20;;;;;;;10.45;5.20;;;;;;;8.87;100.00;99798.88;6187624;28;20317;-79
2024/04/02 02:21:22;;;;;;;7.53;5.18;;;;;;;8.91;100.00;99788.22;6178381;28;20405;-77
2024/04/02 02:24:22;;;;;;;7.07;4.28;;;;;;;8.96;100.00;99784.38;6178850;28;20121;-77
2024/04/02 02:27:25;;;;;;;9.10;5.03;;;;;;;8.90;100.00;99792.59;6187035;28;20101;-77
2024/04/02 02:30:27;;;;;;;6.72;4.28;;;;;;;8.82;100.00;99792.25;6187111;28;20042;-77
2024/04/02 02:33:27;;;;;;;7.30;4.38;;;;;;;8.75;100.00;99801.41;6187211;28;20359;-78
2024/04/02 02:36:28;;;;;;;7.35;4.18;;;;;;;8.81;100.00;99804.50;6184284;28;20078;-78
2024/04/02 02:39:29;;;;;;;9.68;4.65;;;;;;;8.84;100.00;99809.53;6176482;28;20046;-77
2024/04/02 02:42:31;;;;;;;5.88;4.22;;;;;;;8.82;100.00;99803.56;6183926;28;20458;-78
2024/04/02 02:45:32;;;;;;;7.90;4.10;;;;;;;8.85;100.00;99805.97;6178937;28;20046;-77
2024/04/02 02:48:33;;;;;;;9.43;4.63;;;;;;;8.83;100.00;99805.25;6179181;28;20047;-78
2024/04/02 02:51:34;;;;;;;8.05;4.13;;;;;;;8.87;100.00;99806.75;6188249;28;20419;-77
2024/04/02 02:54:35;;;;;;;9.10;4.18;;;;;;;8.88;100.00;99811.03;6179047;28;20058;-77
2024/04/02 02:57:38;;;;;;;9.75;4.20;;;;;;;8.88;100.00;99815.44;6180587;28;20058;-77
2024/04/02 03:00:40;;;;;;;8.10;3.88;;;;;;;8.84;100.00;99808.72;6179553;28;20367;-77
2024/04/02 03:03:40;;;;;;;6.30;3.80;;;;;;;8.82;100.00;99818.44;6185692;28;20157;-79
2024/04/02 03:06:41;;;;;;;7.47;4.07;;;;;;;8.83;100.00;99820.97;6177268;28;20046;-77
2024/04/02 03:09:42;;;;;;;10.23;4.32;;;;;;;8.81;100.00;99828.09;6186451;28;20131;-78
2024/04/02 03:12:44;;;;;;;8.73;4.03;;;;;;;8.77;100.00;99828.38;6186296;28;20058;-77
2024/04/02 03:15:45;;;;;;;14.23;3.50;;;;;;;8.83;100.00;99828.81;6186176;28;20050;-76
2024/04/02 03:18:46;;;;;;;4.88;3.20;;;;;;;8.80;100.00;99838.63;6177779;28;20085;-77
2024/04/02 03:21:46;;;;;;;6.70;3.25;;;;;;;8.81;100.00;99841.19;6181036;28;20328;-77
2024/04/02 03:24:51;;;;;;;7.72;3.70;;;;;;;8.84;100.00;99840.97;6186098;28;20057;-78
2024/04/02 03:27:53;;;;;;;5.43;3.47;;;;;;;8.77;100.00;99847.53;6177563;28;20050;-78
2024/04/02 03:30:56;;;;;;;4.18;2.38;;;;;;;8.85;100.00;99847.06;6186121;28;20341;-79
2024/04/02 03:33:57;;;;;;;4.88;3.08;;;;;;;8.75;100.00;99849.41;6189924;28;20359;-77
2024/04/02 03:36:58;;;;;;;8.48;2.78;;;;;;;8.81;100.00;99845.56;6185290;28;20043;-77
2024/04/02 03:40:00;;;;;;;6.10;2.42;;;;;;;8.80;100.00;99849.13;6181613;28;20047;-78
2024/04/02 03:43:04;;;;;;;3.97;2.40;;;;;;;8.83;100.00;99847.16;6185570;28;20042;-78
2024/04/02 03:46:06;;;;;;;5.72;2.17;;;;;;;8.85;100.00;99847.06;6180839;28;20118;-77
2024/04/02 03:49:07;;;;;;;3.75;2.45;;;;;;;8.83;100.00;99854.19;6177771;28;20051;-78
2024/04/02 03:52:08;;;;;;;6.85;2.63;;;;;;;8.86;100.00;99856.63;6186305;28;20053;-78
2024/04/02 03:55:08;;;;;;;5.47;2.67;;;;;;;8.86;100.00;99857.47;6185861;28;20043;-78
2024/04/02 03:58:11;;;;;;;3.55;1.55;;;;;;;8.88;100.00;99858.22;6176925;28;20077;-78
2024/04/02 04:01:11;;;;;;;7.95;2.40;;;;;;;8.83;100.00;99862.88;6185492;28;20499;-78
2024/04/02 04:04:13;;;;;;;5.78;2.63;;;;;;;8.83;100.00;99862.88;6191868;28;20105;-78
2024/04/02 04:07:13;;;;;;;4.28;2.78;;;;;;;8.83;100.00;99862.88;6189517;28;20043;-79
2024/04/02 04:10:17;;;;;;;4.05;1.95;;;;;;;8.75;100.00;99869.50;6186734;28;20047;-79
2024/04/02 04:13:19;;;;;;;8.70;1.80;;;;;;;8.79;100.00;99876.25;6199644;28;20049;-78
2024/04/02 04:16:20;;;;;;;6.93;2.03;;;;;;;8.73;100.00;99874.84;6186807;28;20043;-79
2024/04/02 04:19:21;;;;;;;4.55;1.30;;;;;;;8.82;100.00;99873.47;6177091;28;20054;-78
2024/04/02 04:22:21;;;;;;;2.58;1.75;;;;;;;8.81;100.00;99869.13;6178075;28;20054;-78
2024/04/02 04:25:23;;;;;;;3.83;1.65;;;;;;;8.75;100.00;99875.59;6186230;28;20047;-78
2024/04/02 04:28:27;;;;;;;1.98;1.52;;;;;;;8.63;100.00;99869.31;6176592;28;20043;-78
2024/04/02 04:31:27;;;;;;;2.80;1.60;;;;;;;8.64;100.00;99871.00;6188620;28;20476;-78
2024/04/02 04:34:29;;;;;;;9.80;1.92;;;;;;;8.68;100.00;99876.06;6188276;28;20054;-77
2024/04/02 04:37:30;;;;;;;2.78;1.73;;;;;;;8.64;100.00;99876.25;6185902;28;20042;-77
2024/04/02 04:40:31;;;;;;;5.40;1.25;;;;;;;8.68;100.00;99884.78;6172160;23;20043;-83
2024/04/02 04:43:33;;;;;;;3.83;1.85;;;;;;;8.73;100.00;99880.09;6153247;28;20051;-84
2024/04/02 04:46:34;;;;;;;4.22;1.63;;;;;;;8.76;100.00;99882.50;6152436;28;20130;-84
2024/04/02 04:49:36;;;;;;;1.52;1.42;;;;;;;8.79;100.00;99890.19;6166015;28;20054;-84
2024/04/02 04:52:37;;;;;;;6.82;2.58;;;;;;;8.79;100.00;99894.59;6165210;28;20062;-81
2024/04/02 04:55:39;;;;;;;5.47;2.08;;;;;;;8.80;100.00;99894.50;6157374;28;20507;-81
2024/04/02 04:58:41;;;;;;;2.58;1.92;;;;;;;8.85;100.00;99897.69;6157821;28;20043;-82
2024/04/02 05:01:42;;;;;;;7.53;1.58;;;;;;;8.84;100.00;99909.09;6163698;28;20047;-82
2024/04/02 05:04:43;;;;;;;3.38;1.73;;;;;;;8.80;100.00;99906.75;6157365;28;20074;-82
2024/04/02 05:07:55;;;;;;;2.97;1.70;;;;;;;8.75;100.00;99912.28;6165762;28;20043;-82
2024/04/02 05:10:56;;;;;;;6.38;1.92;;;;;;;8.69;100.00;99917.88;6161266;28;20047;-82
2024/04/02 05:13:59;;;;;;;5.47;1.95;;;;;;;8.68;100.00;99916.19;6156691;28;20050;-81
2024/04/02 05:16:59;;;;;;;3.95;1.83;;;;;;;8.79;100.00;99926.03;6153995;28;20047;-82
2024/04/02 05:20:01;;;;;;;3.17;1.90;;;;;;;8.76;100.00;99924.44;6164569;28;20086;-82
2024/04/02 05:23:02;;;;;;;5.97;1.88;;;;;;;8.73;100.00;99931.66;6160497;28;20050;-83
2024/04/02 05:26:03;;;;;;;3.55;2.20;;;;;;;8.77;100.00;99935.78;6164282;28;20047;-82
2024/04/02 05:29:05;;;;;;;3.45;1.35;;;;;;;8.79;100.00;99932.13;6159969;28;20462;-82
2024/04/02 05:32:06;;;;;;;3.30;2.33;;;;;;;8.75;100.00;99946.31;6167263;28;20070;-82
2024/04/02 05:35:08;;;;;;;3.13;1.75;;;;;;;8.76;100.00;99949.78;6160270;28;20038;-82
2024/04/02 05:38:09;;;;;;;3.47;1.52;;;;;;;8.73;100.00;99950.81;6171022;28;20055;-82
2024/04/02 05:41:09;;;;;;;6.60;1.50;;;;;;;8.72;100.00;99957.00;6161013;28;20057;-82
2024/04/02 05:44:12;;;;;;;3.58;1.55;;;;;;;8.69;100.00;99951.94;6156202;28;20077;-81
2024/04/02 05:47:12;;;;;;;5.90;1.77;;;;;;;8.74;100.00;99967.38;6155929;28;20043;-83
2024/04/02 05:50:15;;;;;;;5.75;2.05;;;;;;;8.73;100.00;99966.53;6155963;28;20066;-81
2024/04/02 05:53:16;;;;;;;7.60;2.03;;;;;;;8.73;100.00;99976.19;6155905;29;20054;-80
2024/04/02 05:56:17;;;;;;;2.53;1.55;;;;;;;8.79;100.00;99981.03;6155916;28;20459;-81
2024/04/02 05:59:20;;;;;;;3.38;1.75;;;;;;;8.79;100.00;99974.03;6158098;28;20079;-82
2024/04/02 06:02:20;;;;;;;4.32;1.60;;;;;;;8.81;100.00;99969.56;6156947;28;20163;-82
2024/04/02 06:05:21;;;;;;;7.13;1.98;;;;;;;8.82;100.00;99973.03;6162663;28;20078;-82
2024/04/02 06:08:23;;;;;;;4.35;2.10;;;;;;;8.88;100.00;99976.09;6177874;28;20058;-81
2024/04/02 06:11:24;;;;;;;5.20;1.63;;;;;;;8.90;100.00;99973.38;6146738;28;20070;-81
2024/04/02 06:14:26;;;;;;;2.35;1.50;;;;;;;8.96;100.00;99983.53;6153901;28;20062;-82
2024/04/02 06:17:27;;;;;;;2.33;1.63;;;;;;;8.98;100.00;99976.41;6155316;28;20432;-83
2024/04/02 06:20:29;;;;;;;2.17;1.42;;;;;;;9.14;100.00;99985.06;6160800;28;20065;-82
2024/04/02 06:23:29;;;;;;;3.10;1.58;;;;;;;9.16;100.00;99982.34;6179326;28;20047;-81
2024/04/02 06:26:31;;;;;;;6.32;1.70;;;;;;;9.16;100.00;99995.44;6162036;28;20050;-81
2024/04/02 06:29:33;;;;;;;2.33;1.45;;;;;;;9.15;100.00;99994.59;6155860;28;20047;-82
2024/04/02 06:32:35;;;;;;;2.80;1.73;;;;;;;9.20;100.00;99994.31;6155024;28;20051;-82
2024/04/02 06:35:35;;;;;;;5.55;1.83;;;;;;;9.25;100.00;100001.91;6154873;28;20047;-82
2024/04/02 06:38:37;;;;;;;3.08;1.67;;;;;;;9.34;100.00;99994.34;6159586;28;20053;-80
2024/04/02 06:41:38;;;;;;;4.03;1.90;;;;;;;9.33;100.00;99999.69;6155615;28;20062;-80
2024/04/02 06:44:40;;;;;;;6.30;1.83;;;;;;;9.34;100.00;99999.59;6165578;28;20439;-78
2024/04/02 06:47:41;;;;;;;4.72;1.80;;;;;;;9.42;100.00;99995.66;6155955;28;20062;-79
2024/04/02 06:50:42;;;;;;;6.72;1.75;;;;;;;9.41;100.00;100010.56;6162582;28;20051;-80
2024/04/02 06:53:43;;;;;;;11.38;2.17;;;;;;;9.44;100.00;100004.28;6167490;28;20114;-79
2024/04/02 06:56:44;;;;;;;4.38;1.75;;;;;;;9.46;100.00;100011.13;6160994;28;20186;-80
2024/04/02 06:59:47;;;;;;;4.75;1.83;;;;;;;9.53;100.00;100016.81;6154389;28;20059;-80
2024/04/02 07:02:48;;;;;;;2.40;1.63;;;;;;;9.56;100.00;100021.91;6154618;28;20343;-80
2024/04/02 07:05:50;;;;;;;5.40;1.52;;;;;;;9.59;100.00;100016.47;6153595;28;20039;-80
2024/04/02 07:08:51;;;;;;;4.63;1.55;;;;;;;9.56;100.00;100021.91;6156464;28;20051;-79
2024/04/02 07:11:52;;;;;;;9.02;2.60;;;;;;;9.72;100.00;100022.66;6159309;28;20051;-80
2024/04/02 07:14:54;;;;;;;4.22;1.50;;;;;;;9.71;100.00;100023.56;6162117;28;20368;-79
2024/04/02 07:17:55;;;;;;;9.00;1.80;;;;;;;9.69;100.00;100030.72;6148216;28;20065;-79
2024/04/02 07:20:57;;;;;;;5.32;1.60;;;;;;;9.83;100.00;100033.31;6161640;28;20058;-79
2024/04/02 07:23:58;;;;;;;3.90;1.90;;;;;;;9.91;100.00;100035.47;6154153;28;20047;-79
2024/04/02 07:26:59;;;;;;;2.85;1.48;;;;;;;10.02;100.00;100032.19;6172961;28;20050;-80
2024/04/02 07:30:01;;;;;;;5.05;1.52;;;;;;;9.98;100.00;100036.78;6164115;28;20047;-79
2024/04/02 07:33:02;;;;;;;3.13;1.45;;;;;;;10.12;100.00;100035.91;6150620;28;20451;-78
2024/04/02 07:36:06;;;;;;;4.97;1.05;;;;;;;10.25;100.00;100036.84;6152280;28;20043;-78
2024/04/02 07:39:08;;;;;;;5.13;1.60;;;;;;;10.22;100.00;100044.91;6153217;28;20055;-77
2024/04/02 07:42:08;;;;;;;1.95;1.30;;;;;;;10.27;100.00;100049.91;6157783;28;20043;-77
2024/04/02 07:45:11;;;;;;;2.67;1.40;;;;;;;10.39;100.00;100038.59;6161388;28;20364;-78
2024/04/02 07:48:11;;;;;;;2.33;1.30;;;;;;;10.45;100.00;100046.13;6153035;28;20047;-78
2024/04/02 07:51:12;;;;;;;4.35;1.25;;;;;;;10.40;100.00;100061.28;6151008;28;20054;-79
2024/04/02 07:54:14;;;;;;;5.78;1.20;;;;;;;10.47;100.00;100059.97;6154748;28;20059;-78
2024/04/02 07:57:15;;;;;;;3.47;1.35;;;;;;;10.62;100.00;100066.88;6152061;29;20163;-78
2024/04/02 08:00:17;;;;;;;2.85;1.10;;;;;;;10.63;100.00;100055.44;6160637;28;20061;-79
2024/04/02 08:03:19;;;;;;;2.58;1.40;;;;;;;10.62;100.00;100068.66;6161295;28;20122;-79
2024/04/02 08:06:20;;;;;;;5.32;1.40;;;;;;;10.55;100.00;100070.00;6158612;28;20445;-78
2024/04/02 08:09:20;;;;;;;4.28;1.42;;;;;;;10.36;100.00;100073.81;6168711;28;20054;-77
2024/04/02 08:12:22;;;;;;;4.93;2.25;;;;;;;10.42;100.00;100067.31;6176777;28;20043;-76
2024/04/02 08:15:24;;;;;;;3.10;1.85;;;;;;;10.51;100.00;100066.72;6176469;28;20129;-76
2024/04/02 08:18:25;;;;;;;6.40;1.60;;;;;;;10.62;100.00;100077.38;6164825;28;20044;-78
2024/04/02 08:21:25;;;;;;;3.08;1.80;;;;;;;10.80;100.00;100085.84;6160580;28;20047;-78
2024/04/02 08:24:27;;;;;;;3.13;1.48;;;;;;;10.84;100.00;100082.09;6157895;28;20055;-78
2024/04/02 08:27:27;;;;;;;4.53;1.80;;;;;;;10.85;100.00;100104.81;6173416;28;20054;-77
2024/04/02 08:30:30;;;;;;;4.68;2.00;;;;;;;10.85;100.00;100093.44;6182286;28;20054;-76
2024/04/02 08:33:31;;;;;;;3.58;1.63;;;;;;;10.88;100.00;100098.50;6168731;28;20447;-78
2024/04/02 08:36:32;;;;;;;6.65;2.13;;;;;;;10.85;100.00;100096.91;6165690;28;20046;-77
2024/04/02 08:39:33;;;;;;;3.55;1.80;;;;;;;10.98;100.00;100099.59;6157600;28;20051;-82
2024/04/02 08:42:34;;;;;;;5.28;2.20;;;;;;;11.04;100.00;100101.84;6157225;28;20048;-79
2024/04/02 08:45:40;;;;;;;3.55;1.92;;;;;;;11.00;100.00;100108.25;6165132;28;20459;-79
2024/04/02 08:48:41;;;;;;;3.42;1.95;;;;;;;10.93;100.00;100091.16;6166252;28;20054;-78
2024/04/02 08:51:42;;;;;;;4.93;1.80;;;;;;;11.05;100.00;100098.25;6181103;28;20133;-73
2024/04/02 08:54:44;;;;;;;4.68;2.60;;;;;;;11.18;100.00;100108.81;6168983;28;20435;-82
2024/04/02 08:57:48;;;;;;;6.70;2.17;;;;;;;11.18;100.00;100096.50;6156942;28;20540;-79
2024/04/02 09:00:51;;;;;;;2.72;2.10;;;;;;;11.35;100.00;100105.88;6167246;28;20058;-80
2024/04/02 09:03:54;;;;;;;3.92;2.03;;;;;;;11.45;100.00;100092.16;6159060;28;20080;-79
2024/04/02 09:06:55;;;;;;;5.22;1.85;;;;;;;11.43;100.00;100111.47;6156859;28;20448;-81
2024/04/02 09:09:57;;;;;;;4.05;1.98;;;;;;;11.49;100.00;100115.53;6156590;28;20047;-82
2024/04/02 09:12:57;;;;;;;7.78;2.42;;;;;;;11.41;100.00;100112.56;6155297;28;20534;-80
2024/04/02 09:16:00;;;;;;;5.05;2.10;;;;;;;11.41;100.00;100123.06;6167549;28;20050;-82
2024/04/02 09:19:05;;;;;;;3.33;2.05;;;;;;;11.49;100.00;100126.03;6181025;28;20337;-77
2024/04/02 09:22:06;;;;;;;11.07;3.30;;;;;;;11.35;100.00;100126.94;6180457;28;20047;-81
2024/04/02 09:25:09;;;;;;;6.75;2.30;;;;;;;11.31;100.00;100132.50;6180469;28;20057;-79
2024/04/02 09:28:10;;;;;;;4.40;2.17;;;;;;;11.40;100.00;100126.66;6159820;28;20054;-80
2024/04/02 09:31:12;;;;;;;4.35;2.33;;;;;;;11.36;100.00;100123.38;6168108;28;20050;-80
2024/04/02 09:34:15;;;;;;;4.60;2.03;;;;;;;11.48;100.00;100128.75;6163347;28;20435;-80
2024/04/02 09:37:21;;;;;;;8.50;2.53;;;;;;;11.56;100.00;100136.97;6156938;28;20591;-79
2024/04/02 09:40:24;;;;;;;3.05;2.10;;;;;;;11.63;100.00;100143.53;6163294;28;20105;-79
2024/04/02 09:43:25;;;;;;;3.40;1.85;;;;;;;11.67;100.00;100142.34;6156843;28;20444;-80
2024/04/02 09:46:29;;;;;;;6.13;2.20;;;;;;;11.72;100.00;100149.94;6163966;28;20039;-78
2024/04/02 09:49:30;;;;;;;7.53;2.30;;;;;;;11.87;100.00;100151.59;6155848;28;20333;-80
2024/04/02 09:52:32;;;;;;;3.75;1.55;;;;;;;11.88;100.00;100155.91;6155911;28;20043;-80
2024/04/02 09:55:33;;;;;;;3.72;1.70;;;;;;;11.73;100.00;100160.38;6163763;28;20051;-80
2024/04/02 09:58:34;;;;;;;4.88;1.70;;;;;;;11.71;100.00;100148.25;6155706;28;20464;-80
2024/04/02 10:01:41;;;;;;;4.32;2.17;;;;;;;11.80;100.00;100152.91;6178985;28;20436;-80
2024/04/02 10:04:42;;;;;;;5.47;1.73;;;;;;;11.87;100.00;100144.53;6179665;28;20487;-79
2024/04/02 10:07:43;;;;;;;4.68;1.65;;;;;;;12.00;100.00;100152.44;6179537;28;20054;-81
2024/04/02 10:10:46;;;;;;;6.03;1.92;;;;;;;12.04;100.00;100158.34;6177510;28;20061;-82
2024/04/02 10:13:47;;;;;;;5.78;1.35;;;;;;;12.05;100.00;100149.47;6179422;28;20090;-81
2024/04/02 10:16:50;;;;;;;4.30;1.88;;;;;;;12.26;100.00;100155.03;6179325;28;20078;-81
2024/04/02 10:19:50;;;;;;;5.20;1.27;;;;;;;12.32;100.00;100142.28;6179054;28;20051;-81
2024/04/02 10:22:53;;;;;;;6.05;1.35;;;;;;;12.49;100.00;100150.78;6179272;28;20057;-82
2024/04/02 10:25:53;;;;;;;2.45;1.17;;;;;;;12.56;100.00;100152.88;6179789;28;20050;-79
2024/04/02 10:28:56;;;;;;;5.40;1.27;;;;;;;12.78;100.00;100151.34;6179664;28;20062;-80
2024/04/02 10:31:59;;;;;;;3.25;1.35;;;;;;;12.54;100.00;100157.44;6179281;28;20051;-81
2024/04/02 10:34:59;;;;;;;2.67;1.23;;;;;;;12.44;100.00;100157.25;6178360;28;20078;-82
2024/04/02 10:38:01;;;;;;;1.95;1.10;;;;;;;12.36;100.00;100150.81;6179196;28;20096;-80
2024/04/02 10:41:02;;;;;;;1.75;0.80;;;;;;;12.25;100.00;100156.00;6219870;23;20053;-75
2024/04/02 10:44:04;;;;;;;3.50;1.20;;;;;;;12.16;100.00;100158.31;6202243;28;20108;-77
2024/04/02 10:47:06;;;;;;;3.67;0.90;;;;;;;12.12;100.00;100166.53;6202022;28;20046;-78
2024/04/02 10:50:08;;;;;;;7.20;1.35;;;;;;;12.18;100.00;100164.31;6202612;28;20192;-78
2024/04/02 10:53:08;;;;;;;4.45;1.20;;;;;;;12.31;100.00;100168.72;6202928;28;20185;-77
2024/04/02 10:56:09;;;;;;;3.72;1.15;;;;;;;12.44;100.00;100156.38;6202738;28;20446;-76
2024/04/02 10:59:11;;;;;;;5.20;1.30;;;;;;;12.47;100.00;100171.16;6192412;28;20447;-78
2024/04/02 11:02:19;;;;;;;5.60;1.98;;;;;;;12.45;100.00;100168.63;6178372;28;20050;-78
2024/04/02 11:05:20;;;;;;;5.75;1.48;;;;;;;12.41;100.00;100161.88;6178090;28;20105;-78
2024/04/02 11:08:21;;;;;;;3.30;1.35;;;;;;;12.44;100.00;100177.47;6178790;28;20050;-77
2024/04/02 11:11:24;;;;;;;4.72;1.10;;;;;;;12.44;100.00;100170.41;6176720;28;20104;-77
2024/04/02 11:14:27;;;;;;;3.38;1.42;;;;;;;12.30;100.00;100170.53;6178771;28;20352;-77
2024/04/02 11:17:29;;;;;;;3.40;1.13;;;;;;;12.18;100.00;100188.03;6177263;28;20046;-79
2024/04/02 11:20:30;;;;;;;2.90;0.63;;;;;;;11.78;100.00;100181.97;6176783;28;20364;-77
2024/04/02 11:26:58;;;;;;;2.25;1.08;;;;;;;11.54;100.00;100197.63;6147229;28;20368;-76
2024/04/02 11:30:00;;;;;;;4.90;1.30;;;;;;;11.69;100.00;100195.75;6185935;28;20073;-75
2024/04/02 11:33:03;;;;;;;5.18;1.42;;;;;;;11.70;100.00;100189.53;6180086;28;20431;-75
2024/04/02 11:36:05;;;;;;;8.02;1.95;;;;;;;11.72;100.00;100199.94;6181329;28;20043;-77
2024/04/02 11:39:06;;;;;;;7.30;0.98;;;;;;;11.60;100.00;100193.72;6182570;28;20572;-79
2024/04/02 11:42:07;;;;;;;2.70;0.90;;;;;;;11.64;100.00;100209.22;6181047;28;20060;-77
2024/04/02 11:45:08;;;;;;;3.33;1.13;;;;;;;11.55;100.00;100201.94;6181870;28;20054;-77
2024/04/02 11:48:11;;;;;;;5.03;1.20;;;;;;;11.57;100.00;100220.25;6185801;28;20054;-80
2024/04/02 11:51:11;;;;;;;5.60;1.00;;;;;;;11.68;100.00;100223.03;6177320;28;20049;-77
2024/04/02 11:54:13;;;;;;;4.20;1.00;;;;;;;11.84;100.00;100207.06;6185273;28;20047;-75
2024/04/02 12:00:33;;;;;;;;;;;;;;;12.07;100.00;100213.41;6192592;28;20089;-76
2024/04/02 12:03:36;;;;;;;5.10;0.93;;;;;;;12.38;100.00;100222.69;6201596;28;19922;-75
2024/04/02 12:06:38;;;;;;;5.63;0.90;;;;;;;12.42;100.00;100213.63;6186021;28;20042;-76
2024/04/02 12:09:40;;;;;;;1.65;0.50;;;;;;;12.51;100.00;100220.06;6177604;28;20050;-75
2024/04/02 12:12:41;;;;;;;5.13;1.75;;;;;;;12.42;100.00;100216.25;6177029;28;20047;-74
2024/04/02 12:15:42;;;;;;;3.53;0.77;;;;;;;12.41;100.00;100228.59;6201315;28;20134;-76
2024/04/02 12:18:45;;;;;;;3.25;0.52;;;;;;;12.54;100.00;100214.56;6201082;28;20576;-73
2024/04/02 12:21:47;;;;;;;6.28;1.05;;;;;;;12.54;100.00;100222.50;6200618;28;20046;-74
2024/04/02 12:24:48;;;;;;;3.83;1.20;;;;;;;12.40;100.00;100220.81;6185002;28;20051;-75
2024/04/02 12:27:54;;;;;;;3.92;0.75;;;;;;;12.52;100.00;100227.00;6177457;28;20047;-73
2024/04/02 12:30:58;;;;;;;2.60;0.73;;;;;;;12.58;100.00;100230.06;6176730;28;20363;-74
2024/04/02 12:34:00;;;;;;;5.10;0.73;;;;;;;12.52;100.00;100242.81;6177300;28;20050;-77
2024/04/02 12:37:02;;;;;;;6.80;1.23;;;;;;;12.41;100.00;100240.94;6176836;28;20051;-77
2024/04/02 12:40:04;;;;;;;5.35;0.90;;;;;;;12.18;100.00;100256.53;6176893;28;20043;-77
2024/04/02 12:43:05;;;;;;;6.57;1.15;;;;;;;12.02;100.00;100247.13;6187897;28;20086;-78
2024/04/02 12:46:05;;;;;;;4.53;1.30;;;;;;;11.97;100.00;100254.50;6200811;28;20358;-76
2024/04/02 12:49:09;;;;;;;4.00;1.05;;;;;;;11.97;100.00;100250.06;6200964;28;20042;-78
2024/04/02 12:52:11;;;;;;;3.17;0.88;;;;;;;12.00;100.00;100254.28;6200470;28;20050;-76
2024/04/02 12:55:11;;;;;;;2.65;0.98;;;;;;;12.10;100.00;100247.47;6187499;28;20047;-77
2024/04/02 12:58:12;;;;;;;4.65;1.17;;;;;;;12.23;100.00;100243.03;6174929;28;20050;-77
2024/04/02 13:01:13;;;;;;;1.60;0.90;;;;;;;12.39;100.00;100242.81;6188583;28;20050;-76
2024/04/02 13:04:16;;;;;;;1.23;0.88;;;;;;;12.38;100.00;100244.63;6187502;28;20350;-76
2024/04/02 13:07:17;;;;;;;3.63;0.70;;;;;;;12.40;100.00;100249.78;6179165;28;20147;-76
2024/04/02 13:10:17;;;;;;;6.57;1.23;;;;;;;12.39;100.00;100251.56;6192278;28;20057;-76
2024/04/02 13:13:19;;;;;;;5.03;0.95;;;;;;;12.38;100.00;100254.31;6188431;28;20046;-77
2024/04/02 13:16:30;;;;;;;2.47;0.98;;;;;;;12.50;100.00;100247.38;6178941;28;20129;-77
2024/04/02 13:19:33;;;;;;;7.10;0.77;;;;;;;12.52;100.00;100251.56;6188652;28;20134;-77
2024/04/02 13:22:34;;;;;;;1.50;0.70;;;;;;;12.47;100.00;100247.56;6180442;28;20062;-77
2024/04/02 13:25:35;;;;;;;5.20;0.90;;;;;;;12.53;100.00;100241.84;6187435;28;20046;-77
2024/04/02 13:28:37;;;;;;;7.13;0.60;;;;;;;12.55;100.00;100242.63;6196378;28;20050;-76
2024/04/02 13:31:38;;;;;;;3.40;0.75;;;;;;;12.79;100.00;100240.03;6188458;28;20362;-73
2024/04/02 13:34:40;;;;;;;2.13;0.60;;;;;;;12.92;100.00;100235.59;6180706;28;20138;-75
2024/04/02 13:37:41;;;;;;;1.75;0.85;;;;;;;13.02;100.00;100241.03;6179586;28;20057;-75
2024/04/02 13:40:42;;;;;;;4.40;0.50;;;;;;;12.85;100.00;100243.09;6187387;28;20058;-75
2024/04/02 13:43:43;;;;;;;2.78;0.68;;;;;;;12.93;100.00;100245.19;6188010;28;20710;-77
2024/04/02 13:46:43;;;;;;;0.52;0.50;;;;;;;12.91;100.00;100240.03;6189124;28;20061;-75
2024/04/02 13:49:46;;;;;;;4.63;0.90;;;;;;;12.79;100.00;100240.88;6195632;28;20054;-77
2024/04/02 13:52:47;;;;;;;7.15;0.95;;;;;;;13.01;100.00;100234.94;6177686;28;20057;-76
2024/04/02 13:55:55;;;;;;;1.25;0.57;;;;;;;12.94;100.00;100244.22;6183155;28;20051;-76
2024/04/02 13:58:56;;;;;;;3.08;0.93;;;;;;;12.86;100.00;100242.16;6187159;28;20066;-77
2024/04/02 14:01:57;;;;;;;4.75;0.77;;;;;;;12.85;100.00;100239.59;6171068;28;20569;-79
2024/04/02 14:04:59;;;;;;;5.68;1.25;;;;;;;12.83;100.00;100245.00;6168724;28;20138;-78
2024/04/02 14:08:00;;;;;;;9.02;0.80;;;;;;;12.76;100.00;100234.97;6183088;28;20043;-78
2024/04/02 14:11:03;;;;;;;3.22;0.50;;;;;;;12.73;100.00;100243.97;6179493;28;20059;-77